Terminal Aerodrome Forecast
Issued by NWS Knoxville/Tri Cities, TN

Home | Current Version | Previous Version | Text Only | Print | Product List | Glossary On
Versions: 1 2 3 4 5 6 7 8 9 10 11 12 13 14 15 16 17 18 19
000
FTUS44 KMRX 022321
TAFCHA
TAF
KCHA 022321Z 0300/0324 33005KT P6SM SCT250
     FM030100 VRB02KT P6SM SCT250
     FM031500 02006KT P6SM BKN150=

USA.gov is the U.S. government's official web portal to all federal, state and local government web resources and services.